createdAt,value
2019-05-30T00:00:27.523Z,16.50
2019-05-30T00:02:58.219Z,16.50
2019-05-30T00:05:28.065Z,16.40
2019-05-30T00:07:58.171Z,16.40
2019-05-30T00:10:28.151Z,16.40
2019-05-30T00:13:01.161Z,16.40
2019-05-30T00:15:32.803Z,16.40
2019-05-30T00:18:06.486Z,16.40
2019-05-30T00:20:37.045Z,16.40
2019-05-30T00:23:06.572Z,16.40
2019-05-30T00:25:36.001Z,16.40
2019-05-30T00:28:05.370Z,16.40
2019-05-30T00:30:35.419Z,16.40
2019-05-30T00:33:05.259Z,16.40
2019-05-30T00:35:34.351Z,16.30
2019-05-30T00:38:03.955Z,16.30
2019-05-30T00:40:33.965Z,16.30
2019-05-30T00:43:04.099Z,16.20
2019-05-30T00:45:33.572Z,16.30
2019-05-30T00:48:04.265Z,16.30
2019-05-30T00:50:33.787Z,16.30
2019-05-30T00:53:03.119Z,16.20
2019-05-30T00:55:32.675Z,16.20
2019-05-30T00:58:02.788Z,16.20
2019-05-30T01:00:42.997Z,16.20
2019-05-30T01:03:04.865Z,16.20
2019-05-30T01:05:35.025Z,16.20
2019-05-30T01:08:05.143Z,16.20
2019-05-30T01:10:34.332Z,16.20
2019-05-30T01:13:05.084Z,16.10
2019-05-30T01:15:34.452Z,16.10
2019-05-30T01:18:03.745Z,16.10
2019-05-30T01:20:33.391Z,16.10
2019-05-30T01:23:03.285Z,16.00
2019-05-30T01:25:32.387Z,16.00
2019-05-30T01:28:01.708Z,16.00
2019-05-30T01:30:30.867Z,16.00
2019-05-30T01:32:59.869Z,15.90
2019-05-30T01:35:29.022Z,15.90
2019-05-30T01:37:58.242Z,15.90
2019-05-30T01:40:27.815Z,15.90
2019-05-30T01:42:57.893Z,15.90
2019-05-30T01:45:27.017Z,15.90
2019-05-30T01:47:56.175Z,15.90
2019-05-30T01:50:25.301Z,15.90
2019-05-30T01:52:54.441Z,15.90
2019-05-30T01:55:24.601Z,15.80
2019-05-30T01:57:53.716Z,15.80
2019-05-30T02:00:27.020Z,15.80
2019-05-30T02:02:56.068Z,15.80
2019-05-30T02:05:25.272Z,15.80
2019-05-30T02:07:54.464Z,15.80
2019-05-30T02:10:23.730Z,15.80
2019-05-30T02:12:53.235Z,15.80
2019-05-30T02:15:23.000Z,15.80
2019-05-30T02:17:51.997Z,15.70
2019-05-30T02:20:21.017Z,15.70
2019-05-30T02:22:50.135Z,15.70
2019-05-30T02:25:19.267Z,15.70
2019-05-30T02:27:48.385Z,15.70
2019-05-30T02:30:18.721Z,15.70
2019-05-30T02:32:47.869Z,15.70
2019-05-30T02:35:17.000Z,15.60
2019-05-30T02:37:46.021Z,15.60
2019-05-30T02:40:16.586Z,15.60
2019-05-30T02:42:45.685Z,15.60
2019-05-30T02:45:16.031Z,15.60
2019-05-30T02:47:45.211Z,15.50
2019-05-30T02:50:16.121Z,15.50
2019-05-30T02:52:45.141Z,15.50
2019-05-30T02:55:14.303Z,15.50
2019-05-30T02:57:43.727Z,15.50
2019-05-30T03:00:17.566Z,15.50
2019-05-30T03:02:44.933Z,15.50
2019-05-30T03:05:14.974Z,15.50
2019-05-30T03:07:44.731Z,15.50
2019-05-30T03:10:15.184Z,15.50
2019-05-30T03:12:44.835Z,15.50
2019-05-30T03:15:17.033Z,15.50
2019-05-30T03:17:46.210Z,15.40
2019-05-30T03:20:22.537Z,15.40
2019-05-30T03:22:46.413Z,15.40
2019-05-30T03:25:16.565Z,15.40
2019-05-30T03:27:45.713Z,15.40
2019-05-30T03:30:25.828Z,15.40
2019-05-30T03:33:15.326Z,15.40
2019-05-30T03:35:27.898Z,15.40
2019-05-30T03:37:48.653Z,15.40
2019-05-30T03:40:18.470Z,15.40
2019-05-30T03:42:48.477Z,15.40
2019-05-30T03:45:17.789Z,15.30
2019-05-30T03:47:51.917Z,15.40
2019-05-30T03:50:24.472Z,15.40
2019-05-30T03:52:59.796Z,15.30
2019-05-30T03:55:31.721Z,15.30
2019-05-30T03:58:12.208Z,15.40
2019-05-30T04:00:51.181Z,15.30
2019-05-30T04:03:36.390Z,15.30
2019-05-30T04:06:10.105Z,15.30
2019-05-30T04:08:43.260Z,15.30
2019-05-30T04:11:16.860Z,15.30
2019-05-30T04:13:50.256Z,15.30
2019-05-30T04:16:19.851Z,15.30
2019-05-30T04:18:49.157Z,15.30
2019-05-30T04:21:21.273Z,15.30
2019-05-30T04:23:49.429Z,15.30
2019-05-30T04:26:18.767Z,15.30
2019-05-30T04:28:47.980Z,15.30
2019-05-30T04:31:19.437Z,15.30
2019-05-30T04:33:48.781Z,15.40
2019-05-30T04:36:19.137Z,15.40
2019-05-30T04:38:48.433Z,15.40
2019-05-30T04:41:19.170Z,15.40
2019-05-30T04:43:48.623Z,15.40
2019-05-30T04:46:19.648Z,15.50
2019-05-30T04:48:52.009Z,15.50
2019-05-30T04:51:21.881Z,15.50
2019-05-30T04:53:51.146Z,15.50
2019-05-30T04:56:21.906Z,15.50
2019-05-30T04:58:51.017Z,15.50
2019-05-30T05:01:21.968Z,15.60
2019-05-30T05:03:50.950Z,15.60
2019-05-30T05:06:21.769Z,15.70
2019-05-30T05:08:52.746Z,15.70
2019-05-30T05:11:25.208Z,15.70
2019-05-30T05:13:56.684Z,15.80
2019-05-30T05:16:35.055Z,15.80
2019-05-30T05:18:57.089Z,15.80
2019-05-30T05:21:27.762Z,15.90
2019-05-30T05:23:58.239Z,15.90
2019-05-30T05:26:27.867Z,15.90
2019-05-30T05:28:57.146Z,15.90
2019-05-30T05:31:26.390Z,15.90
2019-05-30T05:33:57.124Z,15.90
2019-05-30T05:36:26.893Z,16.00
2019-05-30T05:38:58.919Z,16.00
2019-05-30T05:41:28.690Z,16.00
2019-05-30T05:43:58.279Z,16.00
2019-05-30T05:46:28.513Z,16.10
2019-05-30T05:48:58.868Z,16.10
2019-05-30T05:51:29.036Z,16.10
2019-05-30T05:54:07.704Z,16.10
2019-05-30T05:56:36.820Z,16.20
2019-05-30T05:59:06.139Z,16.20
2019-05-30T06:01:36.803Z,16.30
2019-05-30T06:04:13.819Z,16.20
2019-05-30T06:06:47.361Z,16.30
2019-05-30T06:09:16.553Z,16.30
2019-05-30T06:11:49.042Z,16.30
2019-05-30T06:14:19.873Z,16.40
2019-05-30T06:16:49.625Z,16.30
2019-05-30T06:19:19.115Z,16.40
2019-05-30T06:22:17.412Z,16.40
2019-05-30T06:24:46.793Z,16.50
2019-05-30T06:27:17.794Z,16.50
2019-05-30T06:29:47.518Z,16.60
2019-05-30T06:32:18.444Z,16.60
2019-05-30T06:35:03.243Z,16.60
2019-05-30T06:37:34.588Z,16.70
2019-05-30T06:40:04.058Z,16.70
2019-05-30T06:42:34.673Z,16.70
2019-05-30T06:45:04.563Z,16.70
2019-05-30T06:47:34.448Z,16.80
2019-05-30T06:50:04.805Z,16.80
2019-05-30T06:52:34.197Z,16.80
2019-05-30T06:55:03.775Z,16.80
2019-05-30T06:57:32.996Z,16.90
2019-05-30T07:00:03.843Z,16.90
2019-05-30T07:02:33.766Z,17.00
2019-05-30T07:05:03.790Z,17.00
2019-05-30T07:07:34.848Z,17.00
2019-05-30T07:10:05.362Z,17.10
2019-05-30T07:12:55.062Z,17.10
2019-05-30T07:15:25.089Z,17.20
2019-05-30T07:17:54.399Z,17.20
2019-05-30T07:20:23.651Z,17.20
2019-05-30T07:22:53.964Z,17.20
2019-05-30T07:25:23.781Z,17.30
2019-05-30T07:27:53.061Z,17.40
2019-05-30T07:30:23.871Z,17.40
2019-05-30T07:32:53.072Z,17.50
2019-05-30T07:35:23.899Z,17.50
2019-05-30T07:37:53.251Z,17.50
2019-05-30T07:40:26.931Z,17.60
2019-05-30T07:42:58.442Z,17.70
2019-05-30T07:45:29.560Z,17.70
2019-05-30T07:47:58.789Z,17.70
2019-05-30T07:50:32.531Z,17.80
2019-05-30T07:53:03.604Z,17.80
2019-05-30T07:55:35.158Z,17.80
2019-05-30T07:58:06.660Z,17.90
2019-05-30T08:00:37.660Z,18.00
2019-05-30T08:03:07.828Z,18.00
2019-05-30T08:05:37.177Z,18.00
2019-05-30T08:08:07.663Z,18.10
2019-05-30T08:10:40.011Z,18.10
2019-05-30T08:13:09.298Z,18.10
2019-05-30T08:15:43.945Z,18.20
2019-05-30T08:18:12.665Z,18.20
2019-05-30T08:20:42.696Z,18.20
2019-05-30T08:23:17.937Z,18.30
2019-05-30T08:25:51.451Z,18.30
2019-05-30T08:28:21.055Z,18.30
2019-05-30T08:30:51.066Z,18.30
2019-05-30T08:33:21.616Z,18.40
2019-05-30T08:35:56.465Z,18.40
2019-05-30T08:38:31.005Z,18.40
2019-05-30T08:41:13.648Z,18.40
2019-05-30T08:43:44.655Z,18.50
2019-05-30T08:46:20.813Z,18.50
2019-05-30T08:48:53.365Z,18.50
2019-05-30T08:51:22.696Z,18.50
2019-05-30T08:53:57.155Z,18.60
2019-05-30T08:56:28.560Z,18.60
2019-05-30T08:59:02.095Z,18.60
2019-05-30T09:01:33.076Z,18.70
2019-05-30T09:04:04.153Z,18.70
2019-05-30T09:06:35.841Z,18.70
2019-05-30T09:09:11.318Z,18.70
2019-05-30T09:11:59.820Z,18.80
2019-05-30T09:14:30.394Z,18.80
2019-05-30T09:17:00.367Z,18.90
2019-05-30T09:19:53.041Z,18.90
2019-05-30T09:22:27.035Z,18.90
2019-05-30T09:25:02.731Z,18.90
2019-05-30T09:27:35.053Z,19.00
2019-05-30T09:30:05.727Z,19.00
2019-05-30T09:32:39.405Z,19.00
2019-05-30T09:35:25.677Z,19.00
2019-05-30T09:38:07.634Z,19.00
2019-05-30T09:40:43.620Z,19.10
2019-05-30T09:43:27.285Z,19.10
2019-05-30T09:45:59.373Z,19.20
2019-05-30T09:48:40.171Z,19.20
2019-05-30T09:51:21.113Z,19.20
2019-05-30T09:53:56.811Z,19.20
2019-05-30T09:56:33.912Z,19.20
2019-05-30T09:59:07.251Z,19.30
2019-05-30T10:02:07.082Z,19.30
2019-05-30T10:04:56.912Z,19.30
2019-05-30T10:07:30.843Z,19.40
2019-05-30T10:10:02.678Z,19.40
2019-05-30T10:12:33.704Z,19.40
2019-05-30T10:15:03.292Z,19.40
2019-05-30T10:17:39.595Z,19.50
2019-05-30T10:20:14.726Z,19.50
2019-05-30T10:22:54.554Z,19.50
2019-05-30T10:25:24.637Z,19.60
2019-05-30T10:28:03.241Z,19.60
2019-05-30T10:30:36.271Z,19.60
2019-05-30T10:33:08.227Z,19.70
2019-05-30T10:35:40.706Z,19.70
2019-05-30T10:38:12.718Z,19.70
2019-05-30T10:40:57.969Z,19.80
2019-05-30T10:43:27.591Z,19.80
2019-05-30T10:46:00.845Z,19.90
2019-05-30T10:48:47.277Z,19.90
2019-05-30T10:51:20.416Z,20.00
2019-05-30T10:53:53.929Z,20.00
2019-05-30T10:56:23.572Z,20.00
2019-05-30T10:58:57.855Z,20.00
2019-05-30T11:01:30.039Z,20.00
2019-05-30T11:04:03.590Z,20.00
2019-05-30T11:07:11.577Z,20.10
2019-05-30T11:09:46.647Z,20.10
2019-05-30T11:12:16.930Z,20.20
2019-05-30T11:14:48.609Z,20.20
2019-05-30T11:17:20.207Z,20.20
2019-05-30T11:19:50.024Z,20.30
2019-05-30T11:22:20.982Z,20.30
2019-05-30T11:24:54.445Z,20.40
2019-05-30T11:27:25.252Z,20.40
2019-05-30T11:30:01.307Z,20.40
2019-05-30T11:32:33.834Z,20.50
2019-05-30T11:35:04.831Z,20.50
2019-05-30T11:37:39.122Z,20.60
2019-05-30T11:40:20.854Z,20.60
2019-05-30T11:42:53.637Z,20.70
2019-05-30T11:45:59.872Z,20.70
2019-05-30T11:52:10.619Z,20.80
2019-05-30T11:54:50.092Z,20.80
2019-05-30T11:57:29.547Z,20.90
2019-05-30T12:00:07.168Z,21.00
2019-05-30T12:02:39.958Z,21.10
2019-05-30T12:05:15.799Z,21.10
2019-05-30T12:07:50.961Z,21.20
2019-05-30T12:10:36.922Z,21.10
2019-05-30T12:13:07.218Z,21.20
2019-05-30T12:15:41.231Z,21.20
2019-05-30T12:18:13.157Z,21.30
2019-05-30T12:20:43.224Z,21.30
2019-05-30T12:23:15.273Z,21.40
2019-05-30T12:25:49.653Z,21.50
2019-05-30T12:28:29.216Z,21.60
2019-05-30T12:31:04.449Z,21.70
2019-05-30T12:33:43.453Z,21.80
2019-05-30T12:36:16.737Z,21.90
2019-05-30T12:39:14.068Z,21.90
2019-05-30T12:41:59.021Z,22.00
2019-05-30T12:44:29.626Z,22.00
2019-05-30T12:47:01.240Z,22.00
2019-05-30T12:49:36.538Z,21.90
2019-05-30T12:52:09.357Z,21.90
2019-05-30T12:54:43.002Z,21.90
2019-05-30T12:57:16.487Z,21.90
2019-05-30T12:59:54.794Z,22.00
2019-05-30T13:02:29.486Z,22.00
2019-05-30T13:05:05.248Z,22.10
2019-05-30T13:07:47.341Z,22.20
2019-05-30T13:10:23.614Z,22.30
2019-05-30T13:12:59.779Z,22.40
2019-05-30T13:15:30.243Z,22.40
2019-05-30T13:18:08.070Z,22.50
2019-05-30T13:20:59.980Z,22.60
2019-05-30T13:23:28.260Z,22.60
2019-05-30T13:26:03.842Z,22.60
2019-05-30T13:31:26.410Z,22.50
2019-05-30T13:33:56.857Z,22.60
2019-05-30T13:36:29.332Z,22.60
2019-05-30T13:39:05.983Z,22.60
2019-05-30T13:41:44.781Z,22.70
2019-05-30T13:44:14.461Z,22.80
2019-05-30T13:46:47.982Z,22.90
2019-05-30T13:49:24.839Z,22.90
2019-05-30T13:51:58.950Z,23.00
2019-05-30T13:54:37.921Z,23.00
2019-05-30T13:57:14.234Z,23.10
2019-05-30T13:59:49.757Z,23.10
2019-05-30T14:02:21.726Z,23.20
2019-05-30T14:05:10.348Z,23.30
2019-05-30T14:08:02.622Z,23.40
2019-05-30T14:10:48.736Z,23.50
2019-05-30T14:13:20.588Z,23.60
2019-05-30T14:15:51.336Z,23.70
2019-05-30T14:18:35.463Z,23.80
2019-05-30T14:21:09.270Z,23.90
2019-05-30T14:23:43.370Z,23.90
2019-05-30T14:26:30.941Z,23.90
2019-05-30T14:32:43.220Z,23.90
2019-05-30T14:35:16.620Z,24.00
2019-05-30T14:37:45.891Z,24.00
2019-05-30T14:40:20.699Z,24.00
2019-05-30T14:42:52.320Z,24.20
2019-05-30T14:45:23.758Z,24.30
2019-05-30T14:47:56.914Z,24.30
2019-05-30T14:51:37.141Z,24.40
2019-05-30T14:57:36.519Z,24.40
2019-05-30T15:00:11.749Z,24.30
2019-05-30T15:02:41.777Z,24.20
2019-05-30T15:05:18.299Z,24.20
2019-05-30T15:08:12.542Z,24.20
2019-05-30T15:10:44.328Z,24.10
2019-05-30T15:13:33.901Z,24.00
2019-05-30T15:16:10.885Z,23.80
2019-05-30T15:19:14.289Z,23.70
2019-05-30T15:21:53.090Z,23.70
2019-05-30T15:24:25.004Z,23.70
2019-05-30T15:30:33.656Z,24.00
2019-05-30T15:33:08.279Z,24.10
2019-05-30T15:35:40.401Z,24.00
2019-05-30T15:38:11.569Z,23.90
2019-05-30T15:40:43.930Z,23.90
2019-05-30T15:43:17.621Z,23.80
2019-05-30T15:45:48.317Z,23.80
2019-05-30T15:48:20.020Z,23.70
2019-05-30T15:51:05.649Z,23.60
2019-05-30T15:53:40.426Z,23.50
2019-05-30T15:56:13.222Z,23.40
2019-05-30T15:58:43.888Z,23.40
2019-05-30T16:01:20.069Z,23.30
2019-05-30T16:04:05.651Z,23.30
2019-05-30T16:06:57.773Z,23.30
2019-05-30T16:09:46.819Z,23.30
2019-05-30T16:12:07.013Z,23.30
2019-05-30T16:14:39.789Z,23.30
2019-05-30T16:17:21.780Z,23.30
2019-05-30T16:19:58.829Z,23.30
2019-05-30T16:22:39.116Z,23.40
2019-05-30T16:25:21.886Z,23.40
2019-05-30T16:28:53.027Z,23.30
2019-05-30T16:31:39.212Z,23.20
2019-05-30T16:34:16.137Z,23.10
2019-05-30T16:37:07.356Z,23.00
2019-05-30T16:40:04.093Z,23.00
2019-05-30T16:42:49.523Z,22.90
2019-05-30T16:45:24.676Z,22.90
2019-05-30T16:47:57.811Z,22.90
2019-05-30T16:50:47.345Z,22.80
2019-05-30T16:53:19.089Z,22.90
2019-05-30T16:56:02.806Z,22.90
2019-05-30T16:58:51.730Z,23.00
2019-05-30T17:01:41.329Z,23.20
2019-05-30T17:04:21.010Z,23.30
2019-05-30T17:09:57.291Z,23.50
2019-05-30T17:12:36.237Z,23.40
2019-05-30T17:15:40.656Z,23.30
2019-05-30T17:18:24.309Z,23.20
2019-05-30T17:20:59.980Z,23.10
2019-05-30T17:27:11.149Z,23.00
2019-05-30T17:29:42.280Z,22.90
2019-05-30T17:32:17.879Z,22.80
2019-05-30T17:35:06.042Z,22.70
2019-05-30T17:37:51.095Z,22.60
2019-05-30T17:40:39.058Z,22.50
2019-05-30T17:42:56.549Z,22.30
2019-05-30T17:45:33.382Z,22.20
2019-05-30T17:48:49.676Z,22.10
2019-05-30T17:51:31.217Z,21.90
2019-05-30T17:54:33.710Z,21.80
2019-05-30T18:03:28.521Z,21.60
2019-05-30T18:05:58.427Z,21.50
2019-05-30T18:09:03.230Z,21.40
2019-05-30T18:15:02.529Z,21.50
2019-05-30T18:17:51.973Z,21.40
2019-05-30T18:20:54.825Z,21.40
2019-05-30T18:31:42.338Z,21.30
2019-05-30T18:37:49.920Z,21.20
2019-05-30T18:45:22.787Z,21.10
2019-05-30T19:00:00.864Z,20.90
2019-05-30T19:10:02.653Z,20.90
2019-05-30T19:31:14.707Z,20.80
2019-05-30T19:34:13.790Z,20.80
2019-05-30T19:37:06.056Z,20.80
2019-05-30T19:40:24.475Z,20.80
2019-05-30T19:47:43.242Z,20.80
2019-05-30T19:51:20.862Z,20.80
2019-05-30T19:54:15.486Z,20.80
2019-05-30T20:03:55.111Z,20.70
2019-05-30T20:11:01.777Z,20.50
2019-05-30T20:14:48.472Z,20.40
2019-05-30T20:18:20.834Z,20.40
2019-05-30T20:21:36.405Z,20.40
2019-05-30T20:28:50.031Z,20.40
2019-05-30T20:34:43.782Z,20.40
2019-05-30T20:37:18.811Z,20.40
2019-05-30T20:43:20.334Z,20.40
2019-05-30T20:46:29.471Z,20.40
2019-05-30T20:49:39.326Z,20.40
2019-05-30T20:52:43.136Z,20.30
2019-05-30T20:59:04.324Z,20.40
2019-05-30T21:05:01.373Z,20.40
2019-05-30T21:07:56.394Z,20.40
2019-05-30T21:10:24.652Z,20.30
2019-05-30T21:16:39.894Z,20.40
2019-05-30T21:19:10.581Z,20.30
2019-05-30T21:22:29.622Z,20.30
2019-05-30T21:25:14.767Z,20.30
2019-05-30T21:27:49.236Z,20.30
2019-05-30T21:30:52.258Z,20.30
2019-05-30T21:33:30.282Z,20.30
2019-05-30T21:36:00.363Z,20.30
2019-05-30T21:41:26.940Z,20.30
2019-05-30T21:43:57.827Z,20.30
2019-05-30T21:46:28.859Z,20.30
2019-05-30T21:49:01.497Z,20.30
2019-05-30T21:51:33.403Z,20.30
2019-05-30T21:54:05.043Z,20.30
2019-05-30T21:56:45.886Z,20.30
2019-05-30T21:59:15.436Z,20.20
2019-05-30T22:02:02.560Z,20.20
2019-05-30T22:04:40.484Z,20.20
2019-05-30T22:07:10.968Z,20.20
2019-05-30T22:09:43.150Z,20.10
2019-05-30T22:12:22.733Z,20.10
2019-05-30T22:14:54.646Z,20.10
2019-05-30T22:17:25.863Z,20.10
2019-05-30T22:19:55.562Z,20.10
2019-05-30T22:22:25.480Z,20.10
2019-05-30T22:24:57.093Z,20.10
2019-05-30T22:27:27.149Z,20.10
2019-05-30T22:29:56.838Z,20.10
2019-05-30T22:32:27.488Z,20.10
2019-05-30T22:34:59.101Z,20.10
2019-05-30T22:37:30.814Z,20.10
2019-05-30T22:40:05.567Z,20.10
2019-05-30T22:42:40.110Z,20.10
2019-05-30T22:45:25.629Z,20.10
2019-05-30T22:47:56.683Z,20.10
2019-05-30T22:50:28.194Z,20.10
2019-05-30T22:52:59.445Z,20.00
2019-05-30T22:55:31.277Z,20.00
2019-05-30T22:58:09.655Z,20.00
2019-05-30T23:00:52.141Z,20.00
2019-05-30T23:03:33.125Z,20.00
2019-05-30T23:06:02.287Z,20.00
2019-05-30T23:08:35.107Z,20.00
2019-05-30T23:11:05.647Z,20.00
2019-05-30T23:22:12.365Z,19.90
2019-05-30T23:24:44.507Z,19.90
2019-05-30T23:27:15.290Z,19.90
2019-05-30T23:29:50.130Z,19.80
2019-05-30T23:32:20.142Z,19.80
2019-05-30T23:34:56.474Z,19.80
2019-05-30T23:37:33.919Z,19.80
2019-05-30T23:40:03.282Z,19.70
2019-05-30T23:42:51.698Z,19.70
2019-05-30T23:45:22.742Z,19.70
2019-05-30T23:48:03.754Z,19.70
2019-05-30T23:50:35.161Z,19.70
2019-05-30T23:53:05.287Z,19.70
2019-05-30T23:55:40.762Z,19.70
2019-05-30T23:58:13.184Z,19.70
